createdAt,value
2022-11-18T00:01:28.095Z,7.43
2022-11-18T00:04:14.317Z,7.46
2022-11-18T00:06:59.567Z,7.40
2022-11-18T00:09:45.284Z,7.37
2022-11-18T00:12:30.156Z,7.28
2022-11-18T00:15:15.555Z,7.27
2022-11-18T00:18:00.797Z,7.38
2022-11-18T00:20:46.179Z,7.41
2022-11-18T00:23:31.919Z,7.39
2022-11-18T00:26:17.079Z,7.37
2022-11-18T00:29:02.395Z,7.31
2022-11-18T00:31:48.178Z,7.38
2022-11-18T00:34:33.655Z,7.20
2022-11-18T00:37:19.053Z,7.23
2022-11-18T00:40:04.896Z,7.20
2022-11-18T00:42:50.292Z,7.25
2022-11-18T00:45:35.867Z,7.17
2022-11-18T00:48:21.399Z,7.19
2022-11-18T00:51:26.814Z,7.23
2022-11-18T00:54:12.168Z,7.21
2022-11-18T00:56:57.317Z,7.27
2022-11-18T00:59:42.556Z,7.15
2022-11-18T01:02:27.342Z,7.09
2022-11-18T01:05:12.720Z,7.15
2022-11-18T01:07:57.811Z,7.30
2022-11-18T01:10:43.345Z,7.30
2022-11-18T01:13:28.555Z,7.25
2022-11-18T01:16:19.202Z,7.16
2022-11-18T01:19:04.460Z,7.29
2022-11-18T01:21:50.429Z,7.10
2022-11-18T01:24:35.948Z,6.97
2022-11-18T01:27:21.529Z,6.99
2022-11-18T01:30:07.416Z,6.93
2022-11-18T01:32:52.347Z,7.03
2022-11-18T01:35:43.223Z,6.99
2022-11-18T01:38:28.498Z,6.80
2022-11-18T01:41:14.001Z,6.77
2022-11-18T01:44:05.046Z,6.84
2022-11-18T01:46:50.469Z,7.00
2022-11-18T01:49:35.836Z,7.16
2022-11-18T01:52:22.492Z,7.10
2022-11-18T01:55:13.185Z,6.79
2022-11-18T01:58:12.731Z,6.81
2022-11-18T02:00:59.483Z,6.74
2022-11-18T02:03:46.585Z,6.66
2022-11-18T02:06:31.998Z,6.65
2022-11-18T02:09:17.492Z,6.68
2022-11-18T02:12:03.568Z,6.70
2022-11-18T02:14:49.060Z,6.64
2022-11-18T02:17:47.560Z,6.57
2022-11-18T02:20:47.824Z,6.53
2022-11-18T02:23:39.153Z,6.17
2022-11-18T02:26:36.296Z,6.12
2022-11-18T02:29:26.732Z,6.19
2022-11-18T02:32:16.216Z,6.29
2022-11-18T02:35:19.024Z,6.03
2022-11-18T02:38:13.060Z,6.14
2022-11-18T02:41:10.919Z,5.93
2022-11-18T02:44:02.112Z,5.97
2022-11-18T02:46:51.488Z,6.11
2022-11-18T02:49:42.065Z,6.24
2022-11-18T02:52:27.985Z,6.22
2022-11-18T02:55:15.401Z,6.09
2022-11-18T02:58:02.624Z,6.07
2022-11-18T03:01:00.371Z,6.04
2022-11-18T03:03:45.732Z,6.15
2022-11-18T03:06:37.949Z,6.24
2022-11-18T03:09:31.277Z,6.25
2022-11-18T03:12:16.422Z,6.20
2022-11-18T03:15:18.698Z,6.04
2022-11-18T03:18:25.334Z,6.11
2022-11-18T03:21:19.110Z,5.99
2022-11-18T03:24:13.183Z,5.78
2022-11-18T03:27:07.415Z,5.95
2022-11-18T03:30:02.142Z,6.03
2022-11-18T03:32:57.798Z,5.96
2022-11-18T03:35:46.526Z,5.76
2022-11-18T03:38:37.491Z,5.47
2022-11-18T03:41:25.292Z,5.66
2022-11-18T03:44:16.969Z,5.76
2022-11-18T03:47:09.164Z,5.83
2022-11-18T03:50:00.864Z,5.97
2022-11-18T03:52:47.898Z,5.93
2022-11-18T03:55:40.340Z,5.84
2022-11-18T03:58:36.186Z,5.78
2022-11-18T04:01:51.169Z,5.76
2022-11-18T04:04:36.739Z,5.90
2022-11-18T04:07:32.529Z,5.98
2022-11-18T04:10:20.668Z,5.97
2022-11-18T04:13:16.087Z,5.88
2022-11-18T04:16:02.265Z,5.96
2022-11-18T04:18:47.111Z,5.92
2022-11-18T04:21:32.129Z,5.83
2022-11-18T04:24:17.201Z,5.84
2022-11-18T04:27:03.335Z,5.89
2022-11-18T04:29:48.344Z,5.95
2022-11-18T04:32:33.405Z,5.96
2022-11-18T04:35:19.159Z,6.00
2022-11-18T04:38:05.213Z,5.91
2022-11-18T04:40:50.451Z,5.90
2022-11-18T04:43:35.431Z,5.92
2022-11-18T04:46:20.352Z,5.83
2022-11-18T04:49:05.944Z,5.87
2022-11-18T04:51:52.038Z,5.85
2022-11-18T04:54:37.279Z,5.94
2022-11-18T04:57:22.612Z,5.76
2022-11-18T05:00:08.005Z,5.78
2022-11-18T05:02:53.185Z,5.80
2022-11-18T05:05:38.142Z,5.78
2022-11-18T05:08:23.691Z,5.82
2022-11-18T05:11:09.159Z,5.80
2022-11-18T05:13:54.493Z,5.76
2022-11-18T05:16:39.973Z,5.77
2022-11-18T05:19:25.845Z,5.98
2022-11-18T05:22:11.414Z,6.06
2022-11-18T05:24:56.674Z,5.85
2022-11-18T05:27:42.082Z,5.60
2022-11-18T05:30:28.093Z,5.75
2022-11-18T05:33:13.166Z,5.85
2022-11-18T05:35:58.251Z,6.00
2022-11-18T05:38:43.890Z,6.01
2022-11-18T05:41:28.779Z,5.93
2022-11-18T05:44:14.594Z,5.97
2022-11-18T05:46:59.377Z,5.89
2022-11-18T05:49:44.474Z,5.81
2022-11-18T05:52:29.856Z,5.77
2022-11-18T05:55:17.214Z,5.70
2022-11-18T05:58:02.229Z,5.74
2022-11-18T06:00:50.637Z,5.60
2022-11-18T06:03:38.354Z,5.48
2022-11-18T06:06:24.627Z,5.55
2022-11-18T06:09:11.072Z,5.62
2022-11-18T06:11:59.016Z,5.57
2022-11-18T06:14:49.822Z,5.57
2022-11-18T06:17:50.579Z,5.55
2022-11-18T06:20:40.346Z,5.56
2022-11-18T06:23:28.732Z,5.53
2022-11-18T06:26:15.771Z,5.58
2022-11-18T06:29:01.163Z,5.63
2022-11-18T06:31:46.190Z,5.61
2022-11-18T06:34:34.497Z,5.76
2022-11-18T06:37:22.005Z,5.78
2022-11-18T06:40:07.806Z,5.88
2022-11-18T06:42:53.040Z,5.89
2022-11-18T06:45:38.265Z,5.85
2022-11-18T06:48:23.982Z,5.90
2022-11-18T06:51:09.208Z,5.95
2022-11-18T06:53:54.656Z,5.94
2022-11-18T06:56:39.760Z,5.98
2022-11-18T06:59:24.913Z,6.14
2022-11-18T07:02:10.348Z,6.19
2022-11-18T07:04:55.270Z,6.11
2022-11-18T07:07:42.352Z,6.11
2022-11-18T07:10:29.012Z,6.19
2022-11-18T07:13:14.164Z,6.25
2022-11-18T07:16:04.206Z,6.28
2022-11-18T07:18:50.867Z,6.26
2022-11-18T07:21:36.290Z,6.29
2022-11-18T07:24:21.413Z,6.36
2022-11-18T07:27:06.782Z,6.49
2022-11-18T07:29:52.330Z,6.49
2022-11-18T07:32:37.797Z,6.45
2022-11-18T07:35:22.917Z,6.62
2022-11-18T07:38:08.011Z,6.60
2022-11-18T07:40:53.178Z,6.76
2022-11-18T07:43:39.656Z,6.70
2022-11-18T07:46:30.311Z,6.74
2022-11-18T07:49:46.501Z,6.93
2022-11-18T07:52:31.436Z,6.84
2022-11-18T07:55:16.655Z,6.84
2022-11-18T07:58:02.046Z,7.01
2022-11-18T08:08:14.968Z,6.45
2022-11-18T08:11:02.768Z,6.35
2022-11-18T08:13:48.083Z,6.37
2022-11-18T08:16:33.494Z,6.45
2022-11-18T08:19:19.273Z,6.47
2022-11-18T08:22:05.636Z,6.55
2022-11-18T08:24:50.548Z,6.58
2022-11-18T08:27:36.091Z,6.64
2022-11-18T08:30:21.402Z,6.74
2022-11-18T08:33:06.567Z,6.82
2022-11-18T08:35:52.158Z,6.87
2022-11-18T08:38:37.377Z,6.90
2022-11-18T08:41:33.010Z,6.94
2022-11-18T08:44:18.500Z,6.92
2022-11-18T08:47:04.127Z,6.97
2022-11-18T08:49:49.279Z,7.06
2022-11-18T08:52:35.308Z,7.05
2022-11-18T08:55:20.629Z,7.14
2022-11-18T08:58:05.640Z,7.36
2022-11-18T09:00:50.971Z,7.32
2022-11-18T09:03:36.434Z,7.35
2022-11-18T09:06:22.923Z,7.20
2022-11-18T09:09:08.526Z,7.22
2022-11-18T09:11:53.731Z,7.38
2022-11-18T09:15:13.066Z,7.28
2022-11-18T09:17:43.812Z,7.43
2022-11-18T09:20:28.814Z,7.42
2022-11-18T09:23:14.143Z,7.43
2022-11-18T09:26:01.843Z,7.43
2022-11-18T09:28:47.224Z,7.55
2022-11-18T09:31:32.588Z,7.58
2022-11-18T09:34:18.683Z,7.63
2022-11-18T09:37:07.144Z,7.54
2022-11-18T09:39:52.411Z,7.53
2022-11-18T09:42:48.023Z,7.57
2022-11-18T09:45:41.535Z,7.57
2022-11-18T09:48:27.723Z,7.64
2022-11-18T09:51:12.786Z,7.68
2022-11-18T09:53:57.819Z,7.60
2022-11-18T09:56:42.741Z,7.64
2022-11-18T09:59:31.579Z,7.60
2022-11-18T10:02:30.017Z,7.63
2022-11-18T10:05:19.354Z,7.68
2022-11-18T10:08:26.491Z,7.61
2022-11-18T10:11:19.653Z,7.42
2022-11-18T10:14:31.823Z,7.27
2022-11-18T10:17:35.138Z,7.31
2022-11-18T10:20:31.462Z,7.43
2022-11-18T10:23:29.770Z,7.47
2022-11-18T10:26:14.909Z,7.49
2022-11-18T10:29:00.133Z,7.64
2022-11-18T10:31:59.768Z,7.63
2022-11-18T10:34:57.740Z,7.49
2022-11-18T10:38:06.720Z,7.50
2022-11-18T10:41:04.777Z,7.60
2022-11-18T10:43:56.826Z,7.67
2022-11-18T10:46:41.962Z,7.58
2022-11-18T10:49:27.629Z,7.61
2022-11-18T10:52:14.769Z,7.59
2022-11-18T10:55:30.081Z,7.75
2022-11-18T10:58:16.166Z,7.70
2022-11-18T11:01:26.317Z,7.59
2022-11-18T11:04:24.500Z,7.59
2022-11-18T11:07:24.139Z,7.58
2022-11-18T11:10:12.375Z,7.63
2022-11-18T11:13:10.063Z,7.64
2022-11-18T11:16:00.107Z,7.54
2022-11-18T11:18:50.719Z,7.55
2022-11-18T11:21:36.300Z,7.47
2022-11-18T11:24:26.128Z,7.57
2022-11-18T11:30:52.649Z,7.30
2022-11-18T11:33:53.067Z,7.35
2022-11-18T11:36:51.615Z,7.48
2022-11-18T11:39:55.141Z,7.50
2022-11-18T11:42:53.000Z,7.19
2022-11-18T11:45:57.788Z,7.07
2022-11-18T11:48:49.342Z,7.22
2022-11-18T11:52:11.334Z,7.23
2022-11-18T11:55:06.496Z,7.28
2022-11-18T11:58:31.473Z,7.20
2022-11-18T12:01:32.444Z,7.21
2022-11-18T12:04:37.350Z,7.05
2022-11-18T12:07:29.705Z,6.93
2022-11-18T12:10:27.571Z,6.96
2022-11-18T12:13:33.987Z,7.11
2022-11-18T12:16:34.225Z,7.11
2022-11-18T12:19:22.454Z,7.03
2022-11-18T12:22:07.317Z,6.90
2022-11-18T12:24:52.262Z,6.80
2022-11-18T12:27:37.508Z,6.91
2022-11-18T12:30:22.899Z,6.80
2022-11-18T12:33:16.606Z,6.74
2022-11-18T12:36:01.981Z,6.64
2022-11-18T12:38:47.233Z,6.61
2022-11-18T12:41:41.750Z,6.58
2022-11-18T12:44:28.755Z,6.50
2022-11-18T12:47:36.669Z,6.28
2022-11-18T12:50:46.958Z,6.20
2022-11-18T12:53:39.889Z,6.17
2022-11-18T12:56:33.580Z,6.16
2022-11-18T12:59:28.232Z,6.10
2022-11-18T13:02:19.537Z,6.20
2022-11-18T13:05:08.184Z,6.23
2022-11-18T13:08:11.544Z,6.21
2022-11-18T13:11:08.653Z,6.24
2022-11-18T13:13:54.420Z,6.29
2022-11-18T13:16:39.913Z,6.19
2022-11-18T13:19:25.673Z,6.15
2022-11-18T13:22:18.619Z,6.03
2022-11-18T13:25:05.800Z,5.80
2022-11-18T13:28:15.833Z,5.92
2022-11-18T13:31:16.192Z,5.83
2022-11-18T13:34:12.209Z,5.84
2022-11-18T13:37:00.125Z,5.88
2022-11-18T13:39:47.439Z,5.90
2022-11-18T13:42:33.429Z,5.90
2022-11-18T13:45:21.109Z,5.85
2022-11-18T13:48:14.926Z,5.82
2022-11-18T13:51:01.261Z,5.77
2022-11-18T13:53:47.309Z,5.74
2022-11-18T13:56:35.071Z,5.62
2022-11-18T13:59:23.918Z,5.55
2022-11-18T14:02:13.206Z,5.53
2022-11-18T14:04:59.748Z,5.59
2022-11-18T14:08:01.382Z,5.68
2022-11-18T14:10:46.807Z,5.69
2022-11-18T14:13:51.715Z,5.77
2022-11-18T14:16:41.668Z,5.55
2022-11-18T14:19:32.483Z,5.37
2022-11-18T14:22:23.970Z,5.21
2022-11-18T14:25:17.207Z,5.07
2022-11-18T14:28:17.860Z,5.18
2022-11-18T14:31:21.717Z,5.14
2022-11-18T14:34:26.243Z,5.12
2022-11-18T14:37:13.627Z,5.12
2022-11-18T14:39:58.600Z,5.22
2022-11-18T14:42:43.890Z,5.26
2022-11-18T14:45:29.395Z,5.20
2022-11-18T14:48:18.861Z,5.08
2022-11-18T14:51:03.765Z,4.99
2022-11-18T14:53:48.860Z,4.84
2022-11-18T14:56:34.779Z,4.71
2022-11-18T14:59:20.971Z,4.76
2022-11-18T15:02:12.732Z,4.74
2022-11-18T15:04:57.950Z,4.67
2022-11-18T15:07:43.022Z,4.55
2022-11-18T15:10:28.458Z,4.51
2022-11-18T15:13:13.602Z,4.62
2022-11-18T15:15:58.747Z,4.54
2022-11-18T15:18:47.341Z,4.55
2022-11-18T15:21:33.313Z,4.60
2022-11-18T15:24:18.645Z,4.44
2022-11-18T15:27:04.281Z,4.40
2022-11-18T15:29:49.362Z,4.30
2022-11-18T15:32:34.358Z,4.23
2022-11-18T15:35:20.357Z,4.31
2022-11-18T15:38:05.626Z,4.26
2022-11-18T15:40:51.038Z,4.31
2022-11-18T15:43:35.880Z,4.23
2022-11-18T15:46:22.361Z,4.01
2022-11-18T15:49:11.626Z,4.07
2022-11-18T15:51:56.535Z,4.03
2022-11-18T15:54:41.574Z,4.03
2022-11-18T15:57:26.769Z,4.01
2022-11-18T16:00:12.436Z,3.89
2022-11-18T16:02:57.604Z,3.93
2022-11-18T16:05:42.844Z,3.75
2022-11-18T16:08:29.711Z,3.79
2022-11-18T16:11:16.759Z,3.80
2022-11-18T16:14:03.112Z,3.72
2022-11-18T16:16:50.494Z,3.65
2022-11-18T16:19:35.927Z,3.61
2022-11-18T16:22:20.969Z,3.49
2022-11-18T16:25:06.313Z,3.65
2022-11-18T16:27:51.218Z,3.47
2022-11-18T16:30:36.142Z,3.52
2022-11-18T16:33:21.079Z,3.61
2022-11-18T16:36:06.927Z,3.45
2022-11-18T16:38:52.388Z,3.36
2022-11-18T16:41:39.462Z,3.41
2022-11-18T16:44:24.782Z,3.34
2022-11-18T16:47:14.920Z,3.32
2022-11-18T16:50:00.818Z,3.27
2022-11-18T16:52:46.154Z,3.35
2022-11-18T16:55:31.204Z,3.24
2022-11-18T16:58:16.129Z,3.07
2022-11-18T17:01:18.974Z,3.08
2022-11-18T17:04:06.003Z,3.07
2022-11-18T17:06:51.555Z,3.20
2022-11-18T17:09:36.600Z,3.06
2022-11-18T17:12:21.730Z,3.04
2022-11-18T17:15:07.175Z,3.02
2022-11-18T17:17:52.222Z,3.04
2022-11-18T17:20:37.119Z,3.01
2022-11-18T17:23:21.941Z,3.07
2022-11-18T17:26:08.457Z,2.87
2022-11-18T17:28:56.580Z,2.93
2022-11-18T17:31:42.193Z,3.02
2022-11-18T17:34:27.161Z,3.00
2022-11-18T17:37:11.982Z,2.92
2022-11-18T17:39:57.018Z,2.83
2022-11-18T17:42:41.911Z,2.80
2022-11-18T17:45:26.702Z,2.72
2022-11-18T17:48:11.833Z,2.62
2022-11-18T17:51:05.522Z,2.61
2022-11-18T17:53:51.280Z,2.47
2022-11-18T17:56:36.468Z,2.54
2022-11-18T17:59:21.620Z,2.55
2022-11-18T18:02:06.829Z,2.58
2022-11-18T18:04:52.314Z,2.45
2022-11-18T18:07:37.812Z,2.52
2022-11-18T18:10:24.719Z,2.56
2022-11-18T18:13:09.971Z,2.55
2022-11-18T18:16:00.322Z,2.40
2022-11-18T18:18:45.288Z,2.31
2022-11-18T18:21:30.356Z,2.29
2022-11-18T18:24:15.912Z,2.22
2022-11-18T18:27:01.492Z,2.17
2022-11-18T18:29:46.884Z,2.15
2022-11-18T18:32:32.140Z,2.21
2022-11-18T18:35:17.453Z,2.12
2022-11-18T18:38:02.636Z,2.24
2022-11-18T18:40:48.190Z,2.23
2022-11-18T18:43:33.300Z,2.19
2022-11-18T18:46:23.659Z,2.18
2022-11-18T18:49:11.613Z,2.14
2022-11-18T18:51:56.786Z,2.13
2022-11-18T18:54:41.833Z,2.08
2022-11-18T18:57:28.298Z,2.14
2022-11-18T19:00:14.276Z,1.99
2022-11-18T19:02:59.708Z,1.84
2022-11-18T19:06:17.384Z,1.82
2022-11-18T19:08:49.823Z,1.93
2022-11-18T19:11:36.078Z,1.79
2022-11-18T19:14:22.190Z,1.74
2022-11-18T19:17:11.366Z,1.81
2022-11-18T19:19:57.217Z,1.84
2022-11-18T19:22:42.185Z,1.76
2022-11-18T19:25:27.302Z,1.83
2022-11-18T19:28:12.651Z,1.76
2022-11-18T19:30:59.567Z,1.67
2022-11-18T19:33:44.992Z,1.71
2022-11-18T19:36:30.568Z,1.70
2022-11-18T19:39:15.701Z,1.62
2022-11-18T19:42:01.718Z,1.51
2022-11-18T19:44:47.138Z,1.45
2022-11-18T19:47:32.254Z,1.52
2022-11-18T19:50:17.861Z,1.50
2022-11-18T19:53:03.135Z,1.39
2022-11-18T19:55:56.426Z,1.37
2022-11-18T19:58:43.358Z,1.33
2022-11-18T20:01:29.286Z,1.36
2022-11-18T20:04:14.246Z,1.39
2022-11-18T20:06:59.742Z,1.37
2022-11-18T20:09:45.002Z,1.19
2022-11-18T20:12:30.550Z,1.22
2022-11-18T20:15:15.512Z,1.20
2022-11-18T20:18:00.795Z,1.22
2022-11-18T20:20:46.067Z,1.23
2022-11-18T20:23:31.664Z,1.23
2022-11-18T20:26:19.583Z,1.19
2022-11-18T20:29:06.384Z,1.12
2022-11-18T20:31:51.350Z,1.10
2022-11-18T20:34:36.396Z,1.14
2022-11-18T20:37:27.628Z,1.20
2022-11-18T20:40:12.960Z,1.29
2022-11-18T20:42:57.823Z,1.16
2022-11-18T20:45:43.132Z,1.25
2022-11-18T20:48:27.955Z,1.33
2022-11-18T20:51:16.985Z,1.12
2022-11-18T20:54:02.025Z,1.26
2022-11-18T20:56:47.528Z,1.11
2022-11-18T20:59:32.929Z,1.12
2022-11-18T21:02:17.939Z,1.09
2022-11-18T21:05:03.157Z,1.15
2022-11-18T21:07:48.171Z,1.13
2022-11-18T21:10:34.076Z,1.13
2022-11-18T21:13:19.282Z,1.20
2022-11-18T21:16:04.509Z,1.19
2022-11-18T21:18:49.727Z,1.23
2022-11-18T21:21:35.002Z,1.20
2022-11-18T21:24:24.054Z,1.28
2022-11-18T21:27:09.619Z,1.28
2022-11-18T21:29:55.031Z,1.27
2022-11-18T21:32:40.370Z,1.34
2022-11-18T21:35:25.866Z,1.39
2022-11-18T21:38:11.296Z,1.36
2022-11-18T21:41:02.608Z,1.28
2022-11-18T21:44:04.979Z,1.20
2022-11-18T21:46:51.250Z,1.32
2022-11-18T21:49:36.052Z,1.26
2022-11-18T21:52:21.360Z,1.23
2022-11-18T21:55:06.898Z,1.22
2022-11-18T21:57:51.967Z,1.28
2022-11-18T22:00:37.381Z,1.31
2022-11-18T22:03:22.947Z,1.38
2022-11-18T22:06:10.958Z,1.40
2022-11-18T22:08:56.301Z,1.36
2022-11-18T22:11:41.443Z,1.35
2022-11-18T22:14:26.725Z,1.31
2022-11-18T22:17:12.081Z,1.36
2022-11-18T22:19:57.093Z,1.39
2022-11-18T22:22:42.581Z,1.39
2022-11-18T22:25:27.893Z,1.29
2022-11-18T22:28:13.358Z,1.40
2022-11-18T22:31:06.364Z,1.37
2022-11-18T22:33:52.690Z,1.41
2022-11-18T22:36:37.547Z,1.43
2022-11-18T22:39:22.829Z,1.38
2022-11-18T22:42:08.801Z,1.41
2022-11-18T22:44:53.829Z,1.36
2022-11-18T22:47:38.800Z,1.34
2022-11-18T22:50:23.776Z,1.38
2022-11-18T22:53:08.671Z,1.32
2022-11-18T22:56:06.135Z,1.32
2022-11-18T22:58:51.487Z,1.29
2022-11-18T23:01:36.866Z,1.27
2022-11-18T23:04:21.931Z,1.31
2022-11-18T23:07:07.430Z,1.32
2022-11-18T23:09:52.873Z,1.29
2022-11-18T23:12:38.159Z,1.20
2022-11-18T23:15:23.074Z,1.19
2022-11-18T23:18:11.613Z,1.25
2022-11-18T23:21:01.782Z,1.25
2022-11-18T23:23:47.163Z,1.30
2022-11-18T23:26:32.206Z,1.24
2022-11-18T23:29:18.485Z,1.25
2022-11-18T23:32:04.455Z,1.21
2022-11-18T23:34:50.019Z,1.10
2022-11-18T23:37:35.451Z,1.04
2022-11-18T23:40:20.928Z,1.17
2022-11-18T23:43:05.716Z,1.08
2022-11-18T23:45:51.169Z,0.98
2022-11-18T23:48:38.486Z,1.01
2022-11-18T23:51:24.767Z,1.07
2022-11-18T23:54:09.983Z,1.04
2022-11-18T23:56:57.653Z,1.14
2022-11-18T23:59:42.746Z,1.08
